Veazie, Maine
Current Conditions -  °F | °C
As of 5:53 PM on Thursday 18 Dec 2014 (Local Time) from KBGR Reporting Station
Overcast Overcast  
Wind Chill: 20°   Ceiling: 11000
Heat Index: 30°   Visibility: 10mi
Dew Point: 24°   Wind: 13mph
Humidity: 79%   Direction: 300°WNW
Pressure: 29.68"   Gusts: 22mph
Location:  44.8521°N, 68.8311°W
Report Text: KBGR 182253Z 30011G19KT 10SM SCT040 OVC110 M01/M04 A2968 RMK AO2 SLP054 T10111044
Loading
Personal Weather Stations






























Interactive Weather Map New forecast layout! Learn more

10-Day Weather Forecast

Advertisements
Track Severe Weather on mobile